sensor_id;sensor_type;location;lat;lon;timestamp;pressure;altitude;pressure_sealevel;temperature;humidity
69630;BME280;56857;52.212;5.496;2024-02-21T00:00:33;102258.06;;;8.82;100.00
69630;BME280;56857;52.212;5.496;2024-02-21T00:02:58;102264.44;;;8.79;100.00
69630;BME280;56857;52.212;5.496;2024-02-21T00:05:24;102247.63;;;8.80;100.00
69630;BME280;56857;52.212;5.496;2024-02-21T00:07:49;102237.88;;;8.81;100.00
69630;BME280;56857;52.212;5.496;2024-02-21T00:10:14;102227.41;;;8.79;100.00
69630;BME280;56857;52.212;5.496;2024-02-21T00:12:39;102229.47;;;8.76;100.00
69630;BME280;56857;52.212;5.496;2024-02-21T00:15:05;102232.13;;;8.76;100.00
69630;BME280;56857;52.212;5.496;2024-02-21T00:17:30;102230.44;;;8.75;100.00
69630;BME280;56857;52.212;5.496;2024-02-21T00:19:56;102227.81;;;8.75;100.00
69630;BME280;56857;52.212;5.496;2024-02-21T00:22:21;102224.31;;;8.74;100.00
69630;BME280;56857;52.212;5.496;2024-02-21T00:24:46;102233.09;;;8.75;100.00
69630;BME280;56857;52.212;5.496;2024-02-21T00:27:11;102231.28;;;8.75;100.00
69630;BME280;56857;52.212;5.496;2024-02-21T00:29:37;102233.00;;;8.76;100.00
69630;BME280;56857;52.212;5.496;2024-02-21T00:32:02;102227.69;;;8.76;100.00
69630;BME280;56857;52.212;5.496;2024-02-21T00:34:27;102234.75;;;8.76;100.00
69630;BME280;56857;52.212;5.496;2024-02-21T00:36:53;102235.50;;;8.78;100.00
69630;BME280;56857;52.212;5.496;2024-02-21T00:39:18;102234.66;;;8.77;100.00
69630;BME280;56857;52.212;5.496;2024-02-21T00:41:43;102235.34;;;8.79;100.00
69630;BME280;56857;52.212;5.496;2024-02-21T00:44:08;102228.28;;;8.80;100.00
69630;BME280;56857;52.212;5.496;2024-02-21T00:46:33;102226.47;;;8.80;100.00
69630;BME280;56857;52.212;5.496;2024-02-21T00:48:59;102236.22;;;8.80;100.00
69630;BME280;56857;52.212;5.496;2024-02-21T00:51:24;102229.97;;;8.81;100.00
69630;BME280;56857;52.212;5.496;2024-02-21T00:53:49;102235.25;;;8.81;100.00
69630;BME280;56857;52.212;5.496;2024-02-21T00:56:16;102230.78;;;8.81;100.00
69630;BME280;56857;52.212;5.496;2024-02-21T00:58:41;102237.06;;;8.80;100.00
69630;BME280;56857;52.212;5.496;2024-02-21T01:01:07;102236.09;;;8.81;100.00
69630;BME280;56857;52.212;5.496;2024-02-21T01:03:32;102228.16;;;8.81;100.00
69630;BME280;56857;52.212;5.496;2024-02-21T01:05:57;102222.03;;;8.81;100.00
69630;BME280;56857;52.212;5.496;2024-02-21T01:08:22;102214.09;;;8.81;100.00
69630;BME280;56857;52.212;5.496;2024-02-21T01:10:47;102203.63;;;8.79;100.00
69630;BME280;56857;52.212;5.496;2024-02-21T01:13:13;102217.13;;;8.76;100.00
69630;BME280;56857;52.212;5.496;2024-02-21T01:15:38;102211.94;;;8.75;100.00
69630;BME280;56857;52.212;5.496;2024-02-21T01:18:03;102214.59;;;8.75;100.00
69630;BME280;56857;52.212;5.496;2024-02-21T01:20:29;102212.78;;;8.75;100.00
69630;BME280;56857;52.212;5.496;2024-02-21T01:22:54;102206.78;;;8.73;100.00
69630;BME280;56857;52.212;5.496;2024-02-21T01:25:19;102211.09;;;8.74;100.00
69630;BME280;56857;52.212;5.496;2024-02-21T01:27:44;102207.63;;;8.74;100.00
69630;BME280;56857;52.212;5.496;2024-02-21T01:30:10;102210.13;;;8.75;100.00
69630;BME280;56857;52.212;5.496;2024-02-21T01:32:36;102204.84;;;8.75;100.00
69630;BME280;56857;52.212;5.496;2024-02-21T01:35:01;102196.09;;;8.75;100.00
69630;BME280;56857;52.212;5.496;2024-02-21T01:37:26;102200.53;;;8.74;100.00
69630;BME280;56857;52.212;5.496;2024-02-21T01:39:52;102194.41;;;8.74;100.00
69630;BME280;56857;52.212;5.496;2024-02-21T01:42:17;102182.84;;;8.75;100.00
69630;BME280;56857;52.212;5.496;2024-02-21T01:44:43;102178.41;;;8.75;100.00
69630;BME280;56857;52.212;5.496;2024-02-21T01:47:08;102165.19;;;8.75;100.00
69630;BME280;56857;52.212;5.496;2024-02-21T01:49:33;102155.44;;;8.76;100.00
69630;BME280;56857;52.212;5.496;2024-02-21T01:51:59;102166.88;;;8.76;100.00
69630;BME280;56857;52.212;5.496;2024-02-21T01:54:25;102158.81;;;8.78;100.00
69630;BME280;56857;52.212;5.496;2024-02-21T01:56:51;102161.47;;;8.78;100.00
69630;BME280;56857;52.212;5.496;2024-02-21T01:59:18;102159.66;;;8.78;100.00
69630;BME280;56857;52.212;5.496;2024-02-21T02:01:44;102151.03;;;8.76;100.00
69630;BME280;56857;52.212;5.496;2024-02-21T02:04:10;102153.53;;;8.78;100.00
69630;BME280;56857;52.212;5.496;2024-02-21T02:06:35;102153.53;;;8.78;100.00
69630;BME280;56857;52.212;5.496;2024-02-21T02:09:00;102149.06;;;8.78;100.00
69630;BME280;56857;52.212;5.496;2024-02-21T02:11:26;102142.13;;;8.77;100.00
69630;BME280;56857;52.212;5.496;2024-02-21T02:13:51;102136.84;;;8.77;100.00
69630;BME280;56857;52.212;5.496;2024-02-21T02:16:16;102139.59;;;8.76;100.00
69630;BME280;56857;52.212;5.496;2024-02-21T02:18:41;102134.28;;;8.76;100.00
69630;BME280;56857;52.212;5.496;2024-02-21T02:21:11;102129.00;;;8.76;100.00
69630;BME280;56857;52.212;5.496;2024-02-21T02:23:38;102127.34;;;8.75;100.00
69630;BME280;56857;52.212;5.496;2024-02-21T02:26:04;102133.47;;;8.75;100.00
69630;BME280;56857;52.212;5.496;2024-02-21T02:28:29;102134.19;;;8.77;100.00
69630;BME280;56857;52.212;5.496;2024-02-21T02:30:54;102135.16;;;8.76;100.00
69630;BME280;56857;52.212;5.496;2024-02-21T02:33:20;102131.53;;;8.77;100.00
69630;BME280;56857;52.212;5.496;2024-02-21T02:35:45;102138.50;;;8.78;100.00
69630;BME280;56857;52.212;5.496;2024-02-21T02:38:11;102129.59;;;8.79;100.00
69630;BME280;56857;52.212;5.496;2024-02-21T02:40:37;102123.47;;;8.79;100.00
69630;BME280;56857;52.212;5.496;2024-02-21T02:43:03;102127.81;;;8.80;100.00
69630;BME280;56857;52.212;5.496;2024-02-21T02:45:28;102122.53;;;8.80;100.00
69630;BME280;56857;52.212;5.496;2024-02-21T02:47:54;102120.81;;;8.79;100.00
69630;BME280;56857;52.212;5.496;2024-02-21T02:50:19;102121.66;;;8.79;100.00
69630;BME280;56857;52.212;5.496;2024-02-21T02:52:45;102112.91;;;8.79;100.00
69630;BME280;56857;52.212;5.496;2024-02-21T02:55:10;102112.91;;;8.79;100.00
69630;BME280;56857;52.212;5.496;2024-02-21T02:57:35;102109.31;;;8.80;100.00
69630;BME280;56857;52.212;5.496;2024-02-21T03:00:00;102108.44;;;8.79;100.00
69630;BME280;56857;52.212;5.496;2024-02-21T03:02:26;102101.47;;;8.78;100.00
69630;BME280;56857;52.212;5.496;2024-02-21T03:04:51;102098.84;;;8.78;100.00
69630;BME280;56857;52.212;5.496;2024-02-21T03:07:16;102098.00;;;8.78;100.00
69630;BME280;56857;52.212;5.496;2024-02-21T03:09:42;102082.16;;;8.78;100.00
69630;BME280;56857;52.212;5.496;2024-02-21T03:12:07;102089.25;;;8.77;100.00
69630;BME280;56857;52.212;5.496;2024-02-21T03:14:33;102087.44;;;8.78;100.00
69630;BME280;56857;52.212;5.496;2024-02-21T03:16:58;102079.66;;;8.76;100.00
69630;BME280;56857;52.212;5.496;2024-02-21T03:19:24;102089.25;;;8.77;100.00
69630;BME280;56857;52.212;5.496;2024-02-21T03:21:50;102081.16;;;8.79;100.00
69630;BME280;56857;52.212;5.496;2024-02-21T03:24:16;102074.22;;;8.78;100.00
69630;BME280;56857;52.212;5.496;2024-02-21T03:26:41;102070.72;;;8.77;100.00
69630;BME280;56857;52.212;5.496;2024-02-21T03:29:07;102061.13;;;8.76;100.00
69630;BME280;56857;52.212;5.496;2024-02-21T03:31:32;102068.19;;;8.76;100.00
69630;BME280;56857;52.212;5.496;2024-02-21T03:33:57;102054.97;;;8.76;100.00
69630;BME280;56857;52.212;5.496;2024-02-21T03:36:22;102051.66;;;8.74;100.00
69630;BME280;56857;52.212;5.496;2024-02-21T03:38:48;102043.56;;;8.75;100.00
69630;BME280;56857;52.212;5.496;2024-02-21T03:41:13;102044.56;;;8.74;100.00
69630;BME280;56857;52.212;5.496;2024-02-21T03:43:38;102044.56;;;8.74;100.00
69630;BME280;56857;52.212;5.496;2024-02-21T03:46:03;102040.09;;;8.75;100.00
69630;BME280;56857;52.212;5.496;2024-02-21T03:48:29;102037.44;;;8.75;100.00
69630;BME280;56857;52.212;5.496;2024-02-21T03:50:54;102032.16;;;8.75;100.00
69630;BME280;56857;52.212;5.496;2024-02-21T03:53:19;102035.66;;;8.75;100.00
69630;BME280;56857;52.212;5.496;2024-02-21T03:55:44;102037.59;;;8.73;100.00
69630;BME280;56857;52.212;5.496;2024-02-21T03:58:10;102037.59;;;8.73;100.00
69630;BME280;56857;52.212;5.496;2024-02-21T04:00:35;102035.91;;;8.72;100.00
69630;BME280;56857;52.212;5.496;2024-02-21T04:03:00;102028.81;;;8.73;100.00
69630;BME280;56857;52.212;5.496;2024-02-21T04:05:25;102034.09;;;8.73;100.00
69630;BME280;56857;52.212;5.496;2024-02-21T04:07:51;102037.59;;;8.73;100.00
69630;BME280;56857;52.212;5.496;2024-02-21T04:10:16;102036.72;;;8.73;100.00
69630;BME280;56857;52.212;5.496;2024-02-21T04:12:41;102035.91;;;8.72;100.00
69630;BME280;56857;52.212;5.496;2024-02-21T04:15:07;102028.94;;;8.71;100.00
69630;BME280;56857;52.212;5.496;2024-02-21T04:17:32;102035.22;;;8.70;100.00
69630;BME280;56857;52.212;5.496;2024-02-21T04:20:06;102016.81;;;8.69;100.00
69630;BME280;56857;52.212;5.496;2024-02-21T04:22:38;102007.06;;;8.69;100.00
69630;BME280;56857;52.212;5.496;2024-02-21T04:25:03;102009.88;;;8.68;100.00
69630;BME280;56857;52.212;5.496;2024-02-21T04:27:29;102010.94;;;8.65;100.00
69630;BME280;56857;52.212;5.496;2024-02-21T04:29:54;102013.59;;;8.65;100.00
69630;BME280;56857;52.212;5.496;2024-02-21T04:32:20;102010.22;;;8.63;100.00
69630;BME280;56857;52.212;5.496;2024-02-21T04:34:45;102009.28;;;8.64;100.00
69630;BME280;56857;52.212;5.496;2024-02-21T04:37:10;102009.28;;;8.64;100.00
69630;BME280;56857;52.212;5.496;2024-02-21T04:39:35;102009.53;;;8.61;100.00
69630;BME280;56857;52.212;5.496;2024-02-21T04:42:01;102013.13;;;8.60;100.00
69630;BME280;56857;52.212;5.496;2024-02-21T04:44:26;102012.19;;;8.61;100.00
69630;BME280;56857;52.212;5.496;2024-02-21T04:46:51;102002.56;;;8.60;100.00
69630;BME280;56857;52.212;5.496;2024-02-21T04:49:16;102003.38;;;8.61;100.00
69630;BME280;56857;52.212;5.496;2024-02-21T04:51:42;101991.97;;;8.60;100.00
69630;BME280;56857;52.212;5.496;2024-02-21T04:54:07;101984.19;;;8.58;100.00
69630;BME280;56857;52.212;5.496;2024-02-21T04:56:32;101987.81;;;8.57;100.00
69630;BME280;56857;52.212;5.496;2024-02-21T04:58:58;101991.41;;;8.56;100.00
69630;BME280;56857;52.212;5.496;2024-02-21T05:01:23;101984.44;;;8.55;100.00
69630;BME280;56857;52.212;5.496;2024-02-21T05:03:48;101981.81;;;8.55;100.00
69630;BME280;56857;52.212;5.496;2024-02-21T05:06:13;101982.78;;;8.54;100.00
69630;BME280;56857;52.212;5.496;2024-02-21T05:08:40;101985.44;;;8.54;100.00
69630;BME280;56857;52.212;5.496;2024-02-21T05:11:05;101987.09;;;8.55;100.00
69630;BME280;56857;52.212;5.496;2024-02-21T05:13:30;101980.13;;;8.54;100.00
69630;BME280;56857;52.212;5.496;2024-02-21T05:15:55;101984.56;;;8.54;100.00
69630;BME280;56857;52.212;5.496;2024-02-21T05:18:21;101984.56;;;8.54;100.00
69630;BME280;56857;52.212;5.496;2024-02-21T05:20:46;101967.88;;;8.53;100.00
69630;BME280;56857;52.212;5.496;2024-02-21T05:23:11;101960.09;;;8.52;100.00
69630;BME280;56857;52.212;5.496;2024-02-21T05:25:37;101953.00;;;8.52;100.00
69630;BME280;56857;52.212;5.496;2024-02-21T05:28:03;101954.66;;;8.53;100.00
69630;BME280;56857;52.212;5.496;2024-02-21T05:30:28;101953.09;;;8.51;100.00
69630;BME280;56857;52.212;5.496;2024-02-21T05:32:53;101957.56;;;8.50;100.00
69630;BME280;56857;52.212;5.496;2024-02-21T05:35:19;101948.78;;;8.50;100.00
69630;BME280;56857;52.212;5.496;2024-02-21T05:37:44;101947.00;;;8.50;100.00
69630;BME280;56857;52.212;5.496;2024-02-21T05:40:10;101939.88;;;8.51;100.00
69630;BME280;56857;52.212;5.496;2024-02-21T05:42:35;101934.59;;;8.51;100.00
69630;BME280;56857;52.212;5.496;2024-02-21T05:45:00;101923.19;;;8.50;100.00
69630;BME280;56857;52.212;5.496;2024-02-21T05:47:26;101930.19;;;8.51;100.00
69630;BME280;56857;52.212;5.496;2024-02-21T05:49:51;101916.81;;;8.53;100.00
69630;BME280;56857;52.212;5.496;2024-02-21T05:52:16;101908.19;;;8.51;100.00
69630;BME280;56857;52.212;5.496;2024-02-21T05:54:41;101905.53;;;8.51;100.00
69630;BME280;56857;52.212;5.496;2024-02-21T05:57:07;101898.47;;;8.51;100.00
69630;BME280;56857;52.212;5.496;2024-02-21T05:59:32;101898.47;;;8.51;100.00
69630;BME280;56857;52.212;5.496;2024-02-21T06:01:58;101898.47;;;8.51;100.00
69630;BME280;56857;52.212;5.496;2024-02-21T06:04:23;101898.59;;;8.50;100.00
69630;BME280;56857;52.212;5.496;2024-02-21T06:06:48;101897.75;;;8.49;100.00
69630;BME280;56857;52.212;5.496;2024-02-21T06:09:14;101898.59;;;8.50;100.00
69630;BME280;56857;52.212;5.496;2024-02-21T06:11:39;101895.94;;;8.50;100.00
69630;BME280;56857;52.212;5.496;2024-02-21T06:14:04;101894.28;;;8.49;100.00
69630;BME280;56857;52.212;5.496;2024-02-21T06:16:29;101896.19;;;8.47;100.00
69630;BME280;56857;52.212;5.496;2024-02-21T06:18:54;101890.91;;;8.47;100.00
69630;BME280;56857;52.212;5.496;2024-02-21T06:21:20;101890.19;;;8.45;100.00
69630;BME280;56857;52.212;5.496;2024-02-21T06:23:45;101886.59;;;8.46;100.00
69630;BME280;56857;52.212;5.496;2024-02-21T06:26:10;101892.00;;;8.44;100.00
69630;BME280;56857;52.212;5.496;2024-02-21T06:28:35;101892.16;;;8.43;100.00
69630;BME280;56857;52.212;5.496;2024-02-21T06:31:01;101894.78;;;8.43;100.00
69630;BME280;56857;52.212;5.496;2024-02-21T06:33:26;101895.63;;;8.43;100.00
69630;BME280;56857;52.212;5.496;2024-02-21T06:35:51;101895.88;;;8.40;100.00
69630;BME280;56857;52.212;5.496;2024-02-21T06:38:17;101897.69;;;8.40;100.00
69630;BME280;56857;52.212;5.496;2024-02-21T06:40:42;101899.50;;;8.39;100.00
69630;BME280;56857;52.212;5.496;2024-02-21T06:43:07;101895.88;;;8.40;100.00
69630;BME280;56857;52.212;5.496;2024-02-21T06:45:32;101895.88;;;8.40;100.00
69630;BME280;56857;52.212;5.496;2024-02-21T06:47:57;101905.38;;;8.43;100.00
69630;BME280;56857;52.212;5.496;2024-02-21T06:50:23;101899.09;;;8.44;100.00
69630;BME280;56857;52.212;5.496;2024-02-21T06:52:48;101899.00;;;8.45;100.00
69630;BME280;56857;52.212;5.496;2024-02-21T06:55:13;101894.38;;;8.47;100.00
69630;BME280;56857;52.212;5.496;2024-02-21T06:57:38;101891.91;;;8.46;100.00
69630;BME280;56857;52.212;5.496;2024-02-21T07:00:04;101892.00;;;8.44;100.00
69630;BME280;56857;52.212;5.496;2024-02-21T07:02:30;101888.69;;;8.42;100.00
69630;BME280;56857;52.212;5.496;2024-02-21T07:04:55;101886.28;;;8.39;100.00
69630;BME280;56857;52.212;5.496;2024-02-21T07:07:20;101881.00;;;8.39;100.00
69630;BME280;56857;52.212;5.496;2024-02-21T07:09:45;101875.72;;;8.39;100.00
69630;BME280;56857;52.212;5.496;2024-02-21T07:12:11;101873.16;;;8.38;100.00
69630;BME280;56857;52.212;5.496;2024-02-21T07:14:36;101878.44;;;8.38;100.00
69630;BME280;56857;52.212;5.496;2024-02-21T07:17:01;101874.16;;;8.36;100.00
69630;BME280;56857;52.212;5.496;2024-02-21T07:19:26;101868.97;;;8.35;100.00
69630;BME280;56857;52.212;5.496;2024-02-21T07:21:52;101866.22;;;8.36;100.00
69630;BME280;56857;52.212;5.496;2024-02-21T07:24:17;101863.56;;;8.36;100.00
69630;BME280;56857;52.212;5.496;2024-02-21T07:26:43;101864.31;;;8.39;100.00
69630;BME280;56857;52.212;5.496;2024-02-21T07:29:08;101861.91;;;8.35;100.00
69630;BME280;56857;52.212;5.496;2024-02-21T07:31:43;101868.03;;;8.36;100.00
69630;BME280;56857;52.212;5.496;2024-02-21T07:34:09;101859.28;;;8.35;100.00
69630;BME280;56857;52.212;5.496;2024-02-21T07:36:34;101849.53;;;8.36;100.00
69630;BME280;56857;52.212;5.496;2024-02-21T07:39:00;101853.97;;;8.35;100.00
69630;BME280;56857;52.212;5.496;2024-02-21T07:41:25;101849.53;;;8.36;100.00
69630;BME280;56857;52.212;5.496;2024-02-21T07:43:51;101847.72;;;8.36;100.00
69630;BME280;56857;52.212;5.496;2024-02-21T07:46:16;101836.44;;;8.34;100.00
69630;BME280;56857;52.212;5.496;2024-02-21T07:48:41;101834.41;;;8.38;100.00
69630;BME280;56857;52.212;5.496;2024-02-21T07:51:07;101812.41;;;8.38;100.00
69630;BME280;56857;52.212;5.496;2024-02-21T07:53:32;101811.47;;;8.39;100.00
69630;BME280;56857;52.212;5.496;2024-02-21T07:55:57;101804.38;;;8.39;100.00
69630;BME280;56857;52.212;5.496;2024-02-21T07:58:22;101801.59;;;8.41;100.00
69630;BME280;56857;52.212;5.496;2024-02-21T08:00:48;101794.50;;;8.41;100.00
69630;BME280;56857;52.212;5.496;2024-02-21T08:03:13;101800.63;;;8.42;100.00
69630;BME280;56857;52.212;5.496;2024-02-21T08:05:38;101795.22;;;8.43;100.00
69630;BME280;56857;52.212;5.496;2024-02-21T08:08:04;101802.06;;;8.46;100.00
69630;BME280;56857;52.212;5.496;2024-02-21T08:10:29;101803.47;;;8.50;100.00
69630;BME280;56857;52.212;5.496;2024-02-21T08:12:54;101799.25;;;8.47;100.00
69630;BME280;56857;52.212;5.496;2024-02-21T08:15:19;101805.38;;;8.48;100.00
69630;BME280;56857;52.212;5.496;2024-02-21T08:17:45;101797.44;;;8.48;100.00
69630;BME280;56857;52.212;5.496;2024-02-21T08:20:10;101784.97;;;8.50;100.00
69630;BME280;56857;52.212;5.496;2024-02-21T08:22:37;101783.97;;;8.51;100.00
69630;BME280;56857;52.212;5.496;2024-02-21T08:25:03;101784.84;;;8.51;100.00
69630;BME280;56857;52.212;5.496;2024-02-21T08:27:28;101779.66;;;8.50;100.00
69630;BME280;56857;52.212;5.496;2024-02-21T08:29:53;101778.69;;;8.51;100.00
69630;BME280;56857;52.212;5.496;2024-02-21T08:32:18;101775.78;;;8.54;100.00
69630;BME280;56857;52.212;5.496;2024-02-21T08:34:44;101768.31;;;8.59;100.00
69630;BME280;56857;52.212;5.496;2024-02-21T08:37:09;101756.50;;;8.63;100.00
69630;BME280;56857;52.212;5.496;2024-02-21T08:39:34;101753.84;;;8.63;100.00
69630;BME280;56857;52.212;5.496;2024-02-21T08:41:59;101755.66;;;8.63;100.00
69630;BME280;56857;52.212;5.496;2024-02-21T08:44:25;101752.63;;;8.67;100.00
69630;BME280;56857;52.212;5.496;2024-02-21T08:46:50;101741.78;;;8.70;100.00
69630;BME280;56857;52.212;5.496;2024-02-21T08:49:15;101737.06;;;8.74;100.00
69630;BME280;56857;52.212;5.496;2024-02-21T08:51:40;101720.09;;;8.76;100.00
69630;BME280;56857;52.212;5.496;2024-02-21T08:54:06;101726.78;;;8.80;100.00
69630;BME280;56857;52.212;5.496;2024-02-21T08:56:31;101723.97;;;8.82;100.00
69630;BME280;56857;52.212;5.496;2024-02-21T08:58:56;101722.88;;;8.85;100.00
69630;BME280;56857;52.212;5.496;2024-02-21T09:01:21;101726.91;;;8.89;100.00
69630;BME280;56857;52.212;5.496;2024-02-21T09:03:47;101726.09;;;8.88;100.00
69630;BME280;56857;52.212;5.496;2024-02-21T09:06:12;101722.47;;;8.89;100.00
69630;BME280;56857;52.212;5.496;2024-02-21T09:08:37;101721.50;;;8.90;100.00
69630;BME280;56857;52.212;5.496;2024-02-21T09:11:03;101725.97;;;8.90;100.00
69630;BME280;56857;52.212;5.496;2024-02-21T09:13:28;101713.56;;;8.90;100.00
69630;BME280;56857;52.212;5.496;2024-02-21T09:15:53;101713.41;;;8.92;100.00
69630;BME280;56857;52.212;5.496;2024-02-21T09:18:18;101711.47;;;8.94;100.00
69630;BME280;56857;52.212;5.496;2024-02-21T09:20:44;101707.59;;;8.98;100.00
69630;BME280;56857;52.212;5.496;2024-02-21T09:23:10;101702.03;;;9.01;100.00
69630;BME280;56857;52.212;5.496;2024-02-21T09:25:35;101697.28;;;9.04;100.00
69630;BME280;56857;52.212;5.496;2024-02-21T09:28:01;101689.34;;;9.04;100.00
69630;BME280;56857;52.212;5.496;2024-02-21T09:30:27;101683.22;;;9.04;100.00
69630;BME280;56857;52.212;5.496;2024-02-21T09:32:52;101677.66;;;9.07;100.00
69630;BME280;56857;52.212;5.496;2024-02-21T09:35:17;101674.19;;;9.07;100.00
69630;BME280;56857;52.212;5.496;2024-02-21T09:37:43;101675.28;;;9.04;100.00
69630;BME280;56857;52.212;5.496;2024-02-21T09:40:08;101665.44;;;9.06;100.00
69630;BME280;56857;52.212;5.496;2024-02-21T09:42:38;101662.50;;;9.09;100.00
69630;BME280;56857;52.212;5.496;2024-02-21T09:45:24;101656.22;;;9.10;100.00
69630;BME280;56857;52.212;5.496;2024-02-21T09:50:27;101635.63;;;9.14;100.00
69630;BME280;56857;52.212;5.496;2024-02-21T09:52:54;101640.78;;;9.15;100.00
69630;BME280;56857;52.212;5.496;2024-02-21T09:55:20;101632.03;;;9.15;100.00
69630;BME280;56857;52.212;5.496;2024-02-21T09:57:46;101617.81;;;9.16;100.00
69630;BME280;56857;52.212;5.496;2024-02-21T10:00:12;101615.00;;;9.17;100.00
69630;BME280;56857;52.212;5.496;2024-02-21T10:02:39;101608.59;;;9.20;100.00
69630;BME280;56857;52.212;5.496;2024-02-21T10:05:04;101602.47;;;9.19;100.00
69630;BME280;56857;52.212;5.496;2024-02-21T10:07:30;101594.44;;;9.21;100.00
69630;BME280;56857;52.212;5.496;2024-02-21T10:10:04;101591.78;;;9.21;100.00
69630;BME280;56857;52.212;5.496;2024-02-21T10:12:30;101585.50;;;9.22;100.00
69630;BME280;56857;52.212;5.496;2024-02-21T10:15:05;101570.63;;;9.21;100.00
69630;BME280;56857;52.212;5.496;2024-02-21T10:17:34;101569.63;;;9.22;100.00
69630;BME280;56857;52.212;5.496;2024-02-21T10:20:09;101561.69;;;9.22;100.00
69630;BME280;56857;52.212;5.496;2024-02-21T10:22:35;101550.00;;;9.24;100.00
69630;BME280;56857;52.212;5.496;2024-02-21T10:25:09;101557.78;;;9.26;100.00
69630;BME280;56857;52.212;5.496;2024-02-21T10:27:34;101551.25;;;9.30;100.00
69630;BME280;56857;52.212;5.496;2024-02-21T10:30:01;101542.16;;;9.33;100.00
69630;BME280;56857;52.212;5.496;2024-02-21T10:32:26;101533.81;;;9.37;100.00
69630;BME280;56857;52.212;5.496;2024-02-21T10:35:03;101531.69;;;9.41;100.00
69630;BME280;56857;52.212;5.496;2024-02-21T10:37:29;101529.47;;;9.46;100.00
69630;BME280;56857;52.212;5.496;2024-02-21T10:39:54;101534.31;;;9.50;100.00
69630;BME280;56857;52.212;5.496;2024-02-21T10:42:21;101528.44;;;9.57;100.00
69630;BME280;56857;52.212;5.496;2024-02-21T10:44:50;101516.97;;;9.66;100.00
69630;BME280;56857;52.212;5.496;2024-02-21T10:47:16;101522.50;;;9.72;100.00
69630;BME280;56857;52.212;5.496;2024-02-21T10:49:44;101512.31;;;9.78;100.00
69630;BME280;56857;52.212;5.496;2024-02-21T10:55:03;101495.56;;;9.77;100.00
69630;BME280;56857;52.212;5.496;2024-02-21T10:57:29;101484.56;;;9.82;100.00
69630;BME280;56857;52.212;5.496;2024-02-21T10:59:55;101480.53;;;9.78;100.00
69630;BME280;56857;52.212;5.496;2024-02-21T11:02:21;101472.75;;;9.76;100.00
69630;BME280;56857;52.212;5.496;2024-02-21T11:04:46;101449.44;;;9.80;100.00
69630;BME280;56857;52.212;5.496;2024-02-21T11:07:14;101423.78;;;9.80;100.00
69630;BME280;56857;52.212;5.496;2024-02-21T11:09:39;101418.50;;;9.80;100.00
69630;BME280;56857;52.212;5.496;2024-02-21T11:12:05;101402.06;;;9.77;100.00
69630;BME280;56857;52.212;5.496;2024-02-21T11:14:31;101407.38;;;9.77;100.00
69630;BME280;56857;52.212;5.496;2024-02-21T11:16:57;101411.84;;;9.76;100.00
69630;BME280;56857;52.212;5.496;2024-02-21T11:19:26;101421.31;;;9.79;100.00
69630;BME280;56857;52.212;5.496;2024-02-21T11:21:53;101471.75;;;9.77;100.00
69630;BME280;56857;52.212;5.496;2024-02-21T11:24:32;101466.75;;;9.74;100.00
69630;BME280;56857;52.212;5.496;2024-02-21T11:27:12;101467.38;;;9.68;100.00
69630;BME280;56857;52.212;5.496;2024-02-21T11:32:10;101460.69;;;9.64;100.00
69630;BME280;56857;52.212;5.496;2024-02-21T11:34:36;101456.13;;;9.56;100.00
69630;BME280;56857;52.212;5.496;2024-02-21T11:37:01;101457.56;;;9.50;100.00
69630;BME280;56857;52.212;5.496;2024-02-21T11:39:27;101449.22;;;9.45;100.00
69630;BME280;56857;52.212;5.496;2024-02-21T11:42:05;101447.25;;;9.47;100.00
69630;BME280;56857;52.212;5.496;2024-02-21T11:44:32;101438.38;;;9.39;100.00
69630;BME280;56857;52.212;5.496;2024-02-21T11:46:57;101419.19;;;9.37;100.00
69630;BME280;56857;52.212;5.496;2024-02-21T11:49:31;101414.03;;;9.35;100.00
69630;BME280;56857;52.212;5.496;2024-02-21T11:52:03;101411.84;;;9.31;100.00
69630;BME280;56857;52.212;5.496;2024-02-21T11:54:28;101406.03;;;9.27;100.00
69630;BME280;56857;52.212;5.496;2024-02-21T11:56:53;101402.38;;;9.28;100.00
69630;BME280;56857;52.212;5.496;2024-02-21T11:59:19;101399.19;;;9.24;100.00
69630;BME280;56857;52.212;5.496;2024-02-21T12:01:44;101398.38;;;9.24;100.00
69630;BME280;56857;52.212;5.496;2024-02-21T12:04:10;101387.38;;;9.19;100.00
69630;BME280;56857;52.212;5.496;2024-02-21T12:06:35;101371.53;;;9.19;100.00
69630;BME280;56857;52.212;5.496;2024-02-21T12:09:00;101333.06;;;9.24;100.00
69630;BME280;56857;52.212;5.496;2024-02-21T12:11:26;101333.31;;;9.31;100.00
69630;BME280;56857;52.212;5.496;2024-02-21T12:14:04;101311.25;;;9.40;100.00
69630;BME280;56857;52.212;5.496;2024-02-21T12:22:52;101267.31;;;9.65;100.00
69630;BME280;56857;52.212;5.496;2024-02-21T12:28:21;101269.91;;;9.83;100.00
69630;BME280;56857;52.212;5.496;2024-02-21T12:33:48;101255.31;;;9.97;100.00
69630;BME280;56857;52.212;5.496;2024-02-21T12:39:17;101226.38;;;10.04;100.00
69630;BME280;56857;52.212;5.496;2024-02-21T12:44:45;101203.22;;;10.06;100.00
69630;BME280;56857;52.212;5.496;2024-02-21T12:47:10;101197.75;;;10.07;100.00
69630;BME280;56857;52.212;5.496;2024-02-21T12:49:36;101198.88;;;10.05;100.00
69630;BME280;56857;52.212;5.496;2024-02-21T12:52:01;101190.28;;;10.03;100.00
69630;BME280;56857;52.212;5.496;2024-02-21T12:54:26;101190.13;;;10.04;100.00
69630;BME280;56857;52.212;5.496;2024-02-21T12:56:51;101168.09;;;10.04;100.00
69630;BME280;56857;52.212;5.496;2024-02-21T12:59:17;101161.28;;;10.01;100.00
69630;BME280;56857;52.212;5.496;2024-02-21T13:01:42;101157.81;;;10.01;100.00
69630;BME280;56857;52.212;5.496;2024-02-21T13:04:07;101144.94;;;10.06;100.00
69630;BME280;56857;52.212;5.496;2024-02-21T13:06:32;101128.50;;;10.02;100.00
69630;BME280;56857;52.212;5.496;2024-02-21T13:08:58;101129.50;;;10.01;100.00